CU-0036 weather

Hatuey Airport
Camag├╝ey, Cuba

Public forecast

Using degrees Celsius for public forecast. Weather courtesy of forecast.io.

METAR (pilot weather report)

Closest report is Ignacio Agramonte International Airport, 21.4 nm (39.6 km) NW. Retrieved 2019/05/20 07:53 UTC (44 minutes ago):

MUCM 200753Z 03005KT 9000 NSC 23/22 Q1014

TAF (pilot weather forecast)

Closest forecast is Ignacio Agramonte International Airport, 21.4 nm (39.6 km) NW. Retrieved 2019/05/20 06:03 UTC (3 hours ago):

TAF MUCM 200500Z 2006/2106 VRB03KT 9000 SCT020 BECMG 2015/2017 06008KT TEMPO 2018/2024 VRB10KT 3000 TSRA FEW018CB BKN020 BECMG 2101/2103 VRB03KT